Elroy, Wisconsin
Current Conditions -  °F | °C
As of 3:58 AM on Friday 28 Nov 2014 (Local Time) from KVOK Reporting Station
Light Snow Light Snow  
Wind Chill: -17°   Ceiling: 2200
Heat Index: -12°   Visibility: 5mi
Dew Point: -14°   Wind: 6mph
Humidity: 87%   Direction: 140°SE
Pressure: 30.24"   Gusts: NA
Location:  43.74°N, 90.27°W
Report Text: KVOK 280958Z AUTO 14005KT 5SM R27/5000FT -SN BR BKN022 OVC033 M12/M14 A3024 RMK AO2 SNB0906 CIG 019V027 SLP263 P0000 T11181136
Loading
Personal Weather Stations






























Interactive Weather Map New forecast layout! Learn more

10-Day Weather Forecast

Advertisements
Track Severe Weather on mobile